Time;durP1;ratioP1;P1;durP2;ratioP2;P2;SDS_P1;SDS_P2;PMS_P1;PMS_P2;Temp;Humidity;BMP_temperature;BMP_pressure;BME280_temperature;BME280_humidity;BME280_pressure;Samples;Min_cycle;Max_cycle;Signal;HPM_P1;HPM_P2
2022/12/08 00:01:48;;;;;;;37.08;21.95;;;-0.40;99.90;;;-1.59;100.00;101129.31;4221748;28;20471;-75
2022/12/08 00:03:49;;;;;;;39.97;22.05;;;-0.40;99.90;;;-1.60;100.00;101133.66;4251208;27;20034;-74
2022/12/08 00:10:46;;;;;;;33.13;20.08;;;-0.50;99.90;;;-1.56;100.00;101126.59;4224785;27;20114;-75
2022/12/08 00:12:47;;;;;;;31.83;19.67;;;-0.40;99.90;;;-1.72;100.00;101093.69;4252368;27;20031;-75
2022/12/08 00:14:48;;;;;;;32.03;18.80;;;-0.40;99.90;;;-1.64;100.00;101106.25;4252283;27;20039;-75
2022/12/08 00:16:49;;;;;;;30.65;18.65;;;-0.50;99.90;;;-1.72;100.00;101103.19;4252220;28;20019;-75
2022/12/08 00:18:50;;;;;;;32.80;19.23;;;-0.50;99.90;;;-1.83;100.00;101092.50;4252246;28;20379;-75
2022/12/08 00:20:56;;;;;;;35.00;20.83;;;-0.60;99.90;;;-1.80;100.00;101105.28;4224645;28;20061;-75
2022/12/08 00:22:56;;;;;;;32.92;18.98;;;-0.60;99.90;;;-1.79;100.00;101105.19;4235334;28;20500;-75
2022/12/08 00:24:57;;;;;;;31.65;19.70;;;-0.70;99.90;;;-1.87;100.00;101094.38;4235097;28;20058;-75
2022/12/08 00:26:58;;;;;;;32.65;19.85;;;-0.70;99.90;;;-1.92;100.00;101096.34;4219381;28;20387;-75
2022/12/08 00:28:59;;;;;;;34.05;20.33;;;-0.70;99.90;;;-1.96;100.00;101093.94;4217200;28;20052;-75
2022/12/08 00:31:07;;;;;;;31.02;19.35;;;-0.80;99.90;;;-2.01;100.00;101093.31;4248412;28;20048;-75
2022/12/08 00:33:09;;;;;;;32.53;20.25;;;-0.80;99.90;;;-2.04;100.00;101096.03;4252227;28;20031;-75
2022/12/08 00:35:10;;;;;;;31.20;18.98;;;-0.80;99.90;;;-2.05;100.00;101090.00;4252335;28;20036;-75
2022/12/08 00:37:11;;;;;;;37.05;20.95;;;-0.90;99.90;;;-2.13;100.00;101080.94;4223507;28;20380;-75
2022/12/08 00:39:14;;;;;;;31.83;18.83;;;-0.90;99.90;;;-2.09;100.00;101088.47;4248836;28;20019;-75
2022/12/08 00:42:10;;;;;;;33.80;19.95;;;-0.90;99.90;;;-2.10;100.00;101083.38;4216977;28;20526;-75
2022/12/08 00:43:40;;;;;;;37.33;19.88;;;-0.90;99.90;;;-2.10;100.00;101079.06;4226908;28;20016;-75
2022/12/08 00:45:42;;;;;;;33.08;20.63;;;-0.90;99.90;;;-1.98;100.00;101075.09;4230196;28;20099;-75
2022/12/08 00:47:43;;;;;;;32.40;21.00;;;-0.80;99.90;;;-1.90;100.00;101083.31;4217307;28;20026;-75
2022/12/08 00:49:44;;;;;;;38.33;22.90;;;-0.80;99.90;;;-1.90;100.00;101084.16;4217133;28;20048;-75
2022/12/08 00:51:45;;;;;;;29.33;18.63;;;-0.80;99.90;;;-1.91;100.00;101076.50;4244530;28;20047;-75
2022/12/08 00:53:46;;;;;;;30.90;19.35;;;-0.80;99.90;;;-1.94;100.00;101067.09;4221095;28;20111;-75
2022/12/08 00:55:47;;;;;;;28.55;17.15;;;-0.80;99.90;;;-2.01;100.00;101067.47;4251051;28;20075;-75
2022/12/08 00:57:48;;;;;;;29.02;18.08;;;-0.80;99.90;;;-2.06;100.00;101067.66;4220341;28;20028;-75
2022/12/08 00:59:49;;;;;;;30.67;18.42;;;-0.80;99.90;;;-2.09;100.00;101064.38;4217089;28;20063;-75
2022/12/08 01:01:50;;;;;;;32.67;18.40;;;-0.90;99.90;;;-2.19;100.00;101048.44;4229150;28;20075;-75
2022/12/08 01:03:51;;;;;;;29.40;18.15;;;-0.90;99.90;;;-2.20;100.00;101045.91;4251664;28;20372;-75
2022/12/08 01:05:52;;;;;;;35.75;19.65;;;-1.00;99.90;;;-2.16;100.00;101050.06;4252009;28;20031;-75
2022/12/08 01:07:53;;;;;;;30.65;18.80;;;-1.00;99.90;;;-2.19;100.00;101040.69;4233626;28;20023;-75
2022/12/08 01:09:54;;;;;;;32.75;19.45;;;-1.00;99.90;;;-2.21;100.00;101036.50;4251937;28;20020;-75
2022/12/08 01:11:55;;;;;;;31.92;20.58;;;-1.00;99.90;;;-2.16;100.00;101047.47;4218718;28;20074;-75
2022/12/08 01:13:56;;;;;;;31.27;19.45;;;-1.00;99.90;;;-2.15;100.00;101042.22;4216873;28;20192;-75
2022/12/08 01:15:56;;;;;;;31.40;21.08;;;-1.00;99.90;;;-2.10;100.00;101042.88;4216891;28;20020;-75
2022/12/08 01:17:57;;;;;;;33.28;20.73;;;-1.00;99.90;;;-2.07;100.00;101034.13;4246436;28;20027;-75
2022/12/08 01:19:58;;;;;;;36.20;23.08;;;-0.90;99.90;;;-2.03;100.00;101033.91;4249897;28;20443;-75
2022/12/08 01:21:59;;;;;;;33.85;21.05;;;-0.90;99.90;;;-2.04;100.00;101021.06;4241720;27;20020;-75
2022/12/08 01:24:01;;;;;;;32.22;19.65;;;-0.90;99.90;;;-2.01;100.00;101018.34;4219612;28;20047;-75
2022/12/08 01:26:05;;;;;;;30.33;19.27;;;-0.90;99.90;;;-2.07;100.00;101014.31;4224877;28;20024;-76
2022/12/08 01:28:06;;;;;;;31.92;18.83;;;-0.90;99.90;;;-2.13;100.00;101019.75;4251392;27;20110;-76
2022/12/08 01:30:08;;;;;;;30.38;18.00;;;-0.90;99.90;;;-2.25;100.00;101008.22;4220292;28;20439;-76
2022/12/08 01:32:09;;;;;;;36.40;20.10;;;-1.00;99.90;;;-2.25;100.00;101008.22;4246356;27;20027;-76
2022/12/08 01:34:11;;;;;;;39.35;22.00;;;-1.00;99.90;;;-2.16;100.00;101013.88;4254545;27;20092;-75
2022/12/08 01:36:25;;;;;;;37.80;22.48;;;-1.00;99.90;;;-2.09;100.00;101004.94;4221574;28;20035;-76
2022/12/08 01:38:26;;;;;;;43.72;23.40;;;-1.00;99.90;;;-2.06;100.00;101018.53;4226146;28;20582;-76
2022/12/08 01:40:27;;;;;;;41.00;23.30;;;-1.00;99.90;;;-2.00;100.00;101005.34;4237729;28;20085;-75
2022/12/08 01:42:29;;;;;;;39.72;22.42;;;-0.90;99.90;;;-2.04;100.00;100995.22;4216044;28;20372;-75
2022/12/08 01:44:33;;;;;;;36.33;21.80;;;-0.80;99.90;;;-1.94;100.00;100999.09;4251776;27;20055;-75
2022/12/08 01:46:40;;;;;;;37.83;20.88;;;-0.80;99.90;;;-1.95;100.00;101000.81;4237620;28;20114;-75
2022/12/08 01:48:41;;;;;;;32.15;19.58;;;-0.80;99.90;;;-1.98;100.00;100997.53;4202761;28;20025;-75
2022/12/08 01:50:42;;;;;;;37.40;23.50;;;-0.80;99.90;;;-2.00;100.00;100999.38;4234187;28;20042;-75
2022/12/08 01:52:56;;;;;;;34.22;20.63;;;-0.80;99.90;;;-2.01;100.00;101000.25;4236527;28;20034;-75
2022/12/08 01:55:35;;;;;;;29.70;18.30;;;-0.90;99.90;;;-2.10;100.00;101009.28;4236682;27;20035;-75
2022/12/08 01:57:46;;;;;;;31.13;18.52;;;-0.90;99.90;;;-2.19;100.00;101011.44;4250497;27;20019;-75
2022/12/08 01:59:55;;;;;;;36.67;21.13;;;-1.00;99.90;;;-2.17;100.00;101013.03;4229000;28;20556;-75
2022/12/08 02:01:57;;;;;;;41.50;23.33;;;-1.00;99.90;;;-2.09;100.00;101010.13;4240710;27;20024;-75
2022/12/08 02:04:01;;;;;;;32.17;19.90;;;-1.00;99.90;;;-2.08;100.00;101006.59;4237226;28;20169;-75
2022/12/08 02:06:03;;;;;;;46.78;24.73;;;-0.90;99.90;;;-2.04;100.00;101008.16;4226004;28;20562;-75
2022/12/08 02:08:11;;;;;;;35.67;21.08;;;-0.90;99.90;;;-2.00;100.00;101007.94;4212457;28;20047;-75
2022/12/08 02:10:21;;;;;;;31.77;18.60;;;-0.80;99.90;;;-2.06;100.00;101005.63;4233748;28;20024;-75
2022/12/08 02:12:22;;;;;;;29.50;18.40;;;-0.90;99.90;;;-2.18;100.00;101007.94;4225218;27;20024;-75
2022/12/08 02:14:24;;;;;;;35.95;19.13;;;-1.00;99.90;;;-2.27;100.00;100999.69;4227516;28;20111;-75
2022/12/08 02:16:47;;;;;;;34.00;19.58;;;-1.00;99.90;;;-2.24;100.00;101004.72;4214410;28;20031;-75
2022/12/08 02:19:41;;;;;;;31.98;19.75;;;-1.00;99.90;;;-2.17;100.00;101010.44;4241642;27;20513;-75
2022/12/08 02:22:06;;;;;;;31.77;18.35;;;-1.10;99.90;;;-2.16;100.00;101006.97;4239944;27;20035;-75
2022/12/08 02:24:49;;;;;;;43.33;22.55;;;-1.00;99.90;;;-2.10;100.00;101008.44;4253816;27;20089;-75
2022/12/08 02:27:25;;;;;;;38.08;22.30;;;-1.00;99.90;;;-2.04;100.00;101013.31;4218543;28;20107;-75
2022/12/08 02:30:13;;;;;;;42.35;23.77;;;-0.90;99.90;;;-1.96;100.00;101011.22;4224686;28;20028;-75
2022/12/08 02:32:48;;;;;;;39.90;24.00;;;-0.90;99.90;;;-1.89;100.00;101003.13;4200630;28;20039;-75
2022/12/08 02:35:13;;;;;;;42.55;22.30;;;-0.80;99.90;;;-1.84;100.00;101005.47;4236776;28;20038;-75
2022/12/08 02:37:38;;;;;;;36.72;22.63;;;-0.70;99.90;;;-1.79;100.00;101003.50;4236752;28;20107;-75
2022/12/08 02:40:07;;;;;;;43.25;22.27;;;-0.70;99.90;;;-1.78;100.00;101010.38;4219462;28;20035;-75
2022/12/08 02:42:16;;;;;;;39.38;23.35;;;-0.70;99.90;;;-1.82;100.00;100999.31;4218441;28;20067;-75
2022/12/08 02:44:40;;;;;;;42.42;24.05;;;-0.70;99.90;;;-1.74;100.00;100992.06;4218689;28;20419;-75
2022/12/08 02:47:11;;;;;;;44.80;24.88;;;-0.60;99.90;;;-1.66;100.00;100981.34;4220486;28;20089;-75
2022/12/08 02:49:14;;;;;;;46.42;24.67;;;-0.50;99.90;;;-1.58;100.00;100987.00;4226341;28;20036;-75
2022/12/08 02:51:14;;;;;;;42.55;25.25;;;-0.50;99.90;;;-1.60;100.00;100977.63;4218773;28;20429;-75
2022/12/08 02:53:15;;;;;;;43.90;25.15;;;-0.50;99.90;;;-1.60;100.00;100975.88;4236537;28;20035;-75
2022/12/08 02:55:51;;;;;;;46.75;26.30;;;-0.50;99.90;;;-1.56;100.00;100969.66;4230747;28;20035;-75
2022/12/08 02:58:22;;;;;;;50.67;26.45;;;-0.50;99.90;;;-1.56;100.00;100974.00;4220670;27;20091;-75
2022/12/08 03:00:26;;;;;;;50.95;26.05;;;-0.50;99.90;;;-1.60;100.00;100965.53;4238591;27;20023;-75
2022/12/08 03:03:11;;;;;;;46.92;26.13;;;-0.50;99.90;;;-1.67;100.00;100969.31;4222984;28;20028;-75
2022/12/08 03:05:39;;;;;;;32.83;18.45;;;-0.50;99.90;;;-1.71;100.00;100960.91;4236976;27;20034;-75
2022/12/08 03:07:57;;;;;;;41.95;24.08;;;-0.60;99.90;;;-1.77;100.00;100950.84;4226153;28;20031;-75
2022/12/08 03:10:26;;;;;;;47.13;25.30;;;-0.60;99.90;;;-1.79;100.00;100938.88;4232664;27;20042;-75
2022/12/08 03:12:35;;;;;;;43.85;25.20;;;-0.60;99.90;;;-1.77;100.00;100945.69;4237317;27;20028;-76
2022/12/08 03:14:39;;;;;;;46.88;25.02;;;-0.60;99.90;;;-1.77;100.00;100942.25;4235310;28;20038;-75
2022/12/08 03:16:46;;;;;;;44.67;25.42;;;-0.60;99.90;;;-1.74;100.00;100944.69;4217913;28;20440;-75
2022/12/08 03:18:52;;;;;;;45.58;25.25;;;-0.60;99.90;;;-1.72;100.00;100945.44;4212347;28;20059;-75
2022/12/08 03:20:54;;;;;;;48.85;25.77;;;-0.60;99.90;;;-1.74;100.00;100934.34;4218195;28;20020;-75
2022/12/08 03:22:59;;;;;;;44.03;25.80;;;-0.60;99.90;;;-1.72;100.00;100942.84;4230957;28;20414;-76
2022/12/08 03:25:00;;;;;;;44.30;24.73;;;-0.60;99.90;;;-1.79;100.00;100941.47;4234630;28;20051;-75
2022/12/08 03:27:12;;;;;;;40.83;24.13;;;-0.60;99.90;;;-1.75;100.00;100937.84;4230072;28;20028;-76
2022/12/08 03:29:13;;;;;;;43.38;24.45;;;-0.60;99.90;;;-1.78;100.00;100931.06;4221481;28;20035;-75
2022/12/08 03:31:17;;;;;;;45.55;26.45;;;-0.60;99.90;;;-1.76;100.00;100931.81;4225542;28;20050;-75
2022/12/08 03:33:30;;;;;;;32.42;18.75;;;-0.70;99.90;;;-1.78;100.00;100922.47;4215366;28;20070;-76
2022/12/08 03:35:38;;;;;;;42.17;23.35;;;-0.60;99.90;;;-1.80;100.00;100912.22;4217025;28;20043;-75
2022/12/08 03:37:40;;;;;;;34.58;20.70;;;-0.60;99.90;;;-1.82;100.00;100911.44;4231901;28;20055;-75
2022/12/08 03:39:41;;;;;;;33.15;19.02;;;-0.60;99.90;;;-1.89;100.00;100911.81;4230614;28;20102;-76
2022/12/08 03:41:42;;;;;;;30.83;19.02;;;-0.70;99.90;;;-2.04;100.00;100905.63;4224890;28;20506;-75
2022/12/08 03:43:54;;;;;;;33.78;20.63;;;-0.80;99.90;;;-2.03;100.00;100909.84;4235200;28;20072;-75
2022/12/08 03:45:55;;;;;;;34.22;20.10;;;-0.80;99.90;;;-2.04;100.00;100913.38;4234207;28;20115;-75
2022/12/08 03:47:56;;;;;;;40.75;24.13;;;-0.90;99.90;;;-2.08;100.00;100914.41;4235518;28;20022;-75
2022/12/08 03:49:57;;;;;;;34.28;21.15;;;-0.90;99.90;;;-2.13;100.00;100900.88;4226290;28;20043;-75
2022/12/08 03:51:58;;;;;;;41.58;22.27;;;-0.90;99.90;;;-2.12;100.00;100906.91;4217540;28;20031;-75
2022/12/08 03:53:59;;;;;;;32.88;18.70;;;-0.90;99.90;;;-2.15;100.00;100905.25;4232290;28;20015;-76
2022/12/08 03:56:04;;;;;;;37.85;21.33;;;-0.90;99.90;;;-2.10;100.00;100916.25;4235633;28;20023;-76
2022/12/08 03:58:04;;;;;;;41.60;24.80;;;-0.90;99.90;;;-2.11;100.00;100904.22;4225429;28;20036;-75
2022/12/08 04:00:11;;;;;;;38.22;22.60;;;-0.90;99.90;;;-2.05;100.00;100913.44;4229349;28;20019;-76
2022/12/08 04:02:12;;;;;;;41.58;24.02;;;-0.90;99.90;;;-2.05;100.00;100914.28;4217489;28;20438;-76
2022/12/08 04:04:13;;;;;;;39.92;23.95;;;-0.90;99.90;;;-2.07;100.00;100917.84;4235278;28;20027;-75
2022/12/08 04:06:14;;;;;;;47.88;25.60;;;-0.90;99.90;;;-2.07;100.00;100917.84;4217225;28;20116;-76
2022/12/08 04:08:15;;;;;;;51.53;25.38;;;-0.90;99.90;;;-2.02;100.00;100908.97;4221479;28;20035;-75
2022/12/08 04:10:16;;;;;;;40.70;24.08;;;-0.90;99.90;;;-2.06;100.00;100901.44;4234546;28;20027;-75
2022/12/08 04:12:17;;;;;;;39.95;24.45;;;-0.90;99.90;;;-2.07;100.00;100894.59;4228312;28;20502;-76
2022/12/08 04:14:18;;;;;;;38.15;24.90;;;-0.90;99.90;;;-2.07;100.00;100892.00;4227390;28;20092;-75
2022/12/08 04:16:23;;;;;;;43.00;25.20;;;-0.90;99.90;;;-2.07;100.00;100894.59;4235503;28;20020;-75
2022/12/08 04:18:24;;;;;;;39.35;22.67;;;-0.90;99.90;;;-2.14;100.00;100890.59;4235128;28;20027;-75
2022/12/08 04:20:25;;;;;;;40.53;24.65;;;-1.00;99.90;;;-2.13;100.00;100881.94;4229724;28;20462;-75
2022/12/08 04:22:25;;;;;;;46.90;25.75;;;-1.00;99.90;;;-2.12;100.00;100886.22;4217266;28;20051;-75
2022/12/08 04:24:26;;;;;;;43.53;24.17;;;-1.00;99.90;;;-2.10;100.00;100884.38;4217132;28;20060;-75
2022/12/08 04:26:28;;;;;;;43.53;24.25;;;-1.00;99.90;;;-2.07;100.00;100884.25;4233728;28;20551;-76
2022/12/08 04:28:29;;;;;;;44.63;23.92;;;-0.90;99.90;;;-2.08;100.00;100877.41;4228432;28;20028;-75
2022/12/08 04:30:31;;;;;;;40.65;24.60;;;-0.90;99.90;;;-2.04;100.00;100873.75;4217231;28;20066;-75
2022/12/08 04:32:32;;;;;;;43.20;21.23;;;-0.90;99.90;;;-2.06;100.00;100873.00;4216543;28;20752;-75
2022/12/08 04:34:33;;;;;;;34.70;21.52;;;-0.90;99.90;;;-2.06;100.00;100870.44;4223953;28;20020;-75
2022/12/08 04:36:34;;;;;;;40.47;24.30;;;-0.90;99.90;;;-2.05;100.00;100867.75;4227077;28;20107;-75
2022/12/08 04:38:35;;;;;;;39.25;22.58;;;-0.90;99.90;;;-1.97;100.00;100870.00;4225226;28;20047;-75
2022/12/08 04:40:36;;;;;;;48.40;25.25;;;-0.80;99.90;;;-1.90;100.00;100871.34;4230057;28;20031;-75
2022/12/08 04:42:37;;;;;;;56.95;27.33;;;-0.70;99.90;;;-1.74;100.00;100877.47;4227824;28;20223;-75
2022/12/08 04:44:38;;;;;;;110.18;28.50;;;-0.60;99.90;;;-1.67;100.00;100865.88;4219633;28;20028;-75
2022/12/08 04:46:39;;;;;;;84.10;27.63;;;-0.60;99.90;;;-1.60;100.00;100867.25;4225217;28;20031;-75
2022/12/08 04:48:40;;;;;;;96.68;29.52;;;-0.50;99.90;;;-1.51;100.00;100871.13;4233672;28;20121;-75
2022/12/08 04:50:43;;;;;;;155.07;30.60;;;-0.40;99.90;;;-1.48;100.00;100866.66;4229340;28;20089;-75
2022/12/08 04:52:44;;;;;;;52.72;24.77;;;-0.30;99.90;;;-1.36;100.00;100878.97;4217035;28;20032;-75
2022/12/08 04:54:45;;;;;;;47.90;24.45;;;-0.20;99.90;;;-1.31;100.00;100865.78;4225201;28;20054;-76
2022/12/08 04:56:46;;;;;;;59.58;25.13;;;-0.10;99.90;;;-1.28;100.00;100863.88;4236308;28;20023;-75
2022/12/08 04:58:47;;;;;;;62.55;27.13;;;-0.10;99.90;;;-1.18;100.00;100872.88;4222109;28;20028;-75
2022/12/08 05:00:48;;;;;;;48.85;25.40;;;0.00;99.90;;;-1.18;100.00;100864.25;4226056;28;20027;-75
2022/12/08 05:02:49;;;;;;;43.92;24.42;;;0.00;99.90;;;-1.17;100.00;100874.56;4229025;28;20024;-76
2022/12/08 05:04:49;;;;;;;44.63;25.42;;;0.00;99.90;;;-1.19;100.00;100865.16;4220138;28;20028;-75
2022/12/08 05:06:50;;;;;;;47.30;24.73;;;0.00;99.90;;;-1.18;100.00;100861.69;4235875;28;20035;-75
2022/12/08 05:08:51;;;;;;;39.78;21.98;;;0.00;99.90;;;-1.14;100.00;100863.19;4236961;28;20027;-75
2022/12/08 05:10:52;;;;;;;44.35;23.20;;;0.10;99.90;;;-1.10;100.00;100854.34;4237930;28;20031;-75
2022/12/08 05:12:53;;;;;;;48.30;24.48;;;0.10;99.90;;;-1.12;100.00;100840.66;4226099;28;20024;-76
2022/12/08 05:14:54;;;;;;;49.03;24.98;;;0.10;99.90;;;-1.06;100.00;100844.66;4235107;28;20028;-75
2022/12/08 05:16:54;;;;;;;49.47;24.98;;;0.10;99.90;;;-0.99;100.00;100846.03;4219920;28;20035;-75
2022/12/08 05:18:55;;;;;;;62.67;24.52;;;0.20;99.90;;;-0.98;100.00;100840.75;4237823;28;20482;-75
2022/12/08 05:20:56;;;;;;;38.40;21.90;;;0.20;99.90;;;-1.01;100.00;100834.91;4227931;28;20024;-75
2022/12/08 05:22:57;;;;;;;56.83;22.90;;;0.20;99.90;;;-0.93;100.00;100845.72;4234394;28;20114;-75
2022/12/08 05:24:58;;;;;;;56.85;23.40;;;0.30;99.90;;;-0.95;100.00;100838.00;4248304;27;20047;-76
2022/12/08 05:26:59;;;;;;;45.85;22.85;;;0.30;99.90;;;-0.93;100.00;100843.97;4234635;28;20405;-75
2022/12/08 05:29:00;;;;;;;60.95;24.48;;;0.30;99.90;;;-0.94;100.00;100838.84;4245256;27;20059;-76
2022/12/08 05:31:01;;;;;;;40.45;21.27;;;0.30;99.90;;;-0.98;100.00;100833.00;4232781;28;20426;-76
2022/12/08 05:33:02;;;;;;;45.13;20.55;;;0.30;99.90;;;-1.01;100.00;100821.97;4220087;28;20024;-76
2022/12/08 05:35:03;;;;;;;58.33;21.00;;;0.30;99.90;;;-0.99;100.00;100825.31;4225472;28;20063;-76
2022/12/08 05:37:04;;;;;;;41.50;21.65;;;0.20;99.90;;;-1.07;100.00;100817.09;4219559;28;20510;-76
2022/12/08 05:39:05;;;;;;;43.67;20.23;;;0.20;99.90;;;-1.16;100.00;100801.16;4219297;28;20035;-76
2022/12/08 05:41:08;;;;;;;34.90;21.30;;;0.20;99.90;;;-1.07;100.00;100807.59;4235202;28;20426;-77
2022/12/08 05:43:09;;;;;;;41.40;20.40;;;0.20;99.90;;;-1.12;100.00;100801.84;4230951;28;20032;-77
2022/12/08 05:45:10;;;;;;;55.13;19.45;;;0.20;99.90;;;-1.08;100.00;100810.28;4246753;27;20026;-76
2022/12/08 05:47:11;;;;;;;43.58;19.45;;;0.20;99.90;;;-1.14;100.00;100807.09;4223832;28;20048;-77
2022/12/08 05:49:12;;;;;;;40.67;20.58;;;0.20;99.90;;;-1.18;100.00;100805.59;4253146;27;20031;-76
2022/12/08 05:51:22;;;;;;;39.58;20.33;;;0.20;99.90;;;-1.06;100.00;100819.63;4252456;27;20030;-76
2022/12/08 05:53:23;;;;;;;36.65;19.20;;;0.20;99.90;;;-1.06;100.00;100813.59;4242626;27;20035;-76
2022/12/08 05:55:24;;;;;;;37.60;20.98;;;0.20;99.90;;;-0.98;100.00;100811.44;4222789;28;20024;-76
2022/12/08 05:57:25;;;;;;;44.17;17.27;;;0.20;99.90;;;-1.02;100.00;100812.53;4237371;28;20521;-76
2022/12/08 05:59:26;;;;;;;31.35;14.75;;;0.20;99.90;;;-1.05;100.00;100810.13;4237454;28;20054;-76
2022/12/08 06:01:30;;;;;;;32.47;17.00;;;0.20;99.90;;;-1.07;100.00;100811.94;4237328;28;20019;-76
2022/12/08 06:03:31;;;;;;;42.45;17.63;;;0.20;99.90;;;-1.11;100.00;100801.72;4232318;28;20020;-76
2022/12/08 06:05:35;;;;;;;34.47;14.05;;;0.20;99.90;;;-1.25;100.00;100808.56;4235874;28;20157;-76
2022/12/08 06:07:36;;;;;;;43.22;16.50;;;0.10;99.90;;;-1.27;100.00;100807.81;4229466;28;20102;-76
2022/12/08 06:09:37;;;;;;;36.33;15.45;;;0.10;99.90;;;-1.24;100.00;100807.66;4247283;27;20023;-76
2022/12/08 06:11:38;;;;;;;43.38;16.35;;;0.10;99.90;;;-1.16;100.00;100806.31;4222834;28;20035;-76
2022/12/08 06:13:39;;;;;;;41.03;16.83;;;0.10;99.90;;;-1.18;100.00;100797.81;4253957;27;20501;-76
2022/12/08 06:15:41;;;;;;;50.13;17.05;;;0.10;99.90;;;-1.14;100.00;100799.34;4229848;28;20137;-76
2022/12/08 06:17:41;;;;;;;41.90;17.20;;;0.10;99.90;;;-1.18;100.00;100795.22;4218840;28;20066;-76
2022/12/08 06:19:42;;;;;;;51.30;15.68;;;0.10;99.90;;;-1.19;100.00;100788.38;4250361;27;20023;-76
2022/12/08 06:21:43;;;;;;;38.30;16.23;;;0.10;99.90;;;-1.17;100.00;100790.91;4222075;28;20023;-76
2022/12/08 06:23:52;;;;;;;54.70;16.75;;;0.10;99.90;;;-1.20;100.00;100784.13;4235822;28;20039;-76
2022/12/08 06:25:53;;;;;;;56.53;18.27;;;0.10;99.90;;;-1.19;100.00;100790.13;4235760;28;20028;-76
2022/12/08 06:27:53;;;;;;;39.40;14.77;;;0.10;99.90;;;-1.21;100.00;100784.19;4233691;28;20028;-76
2022/12/08 06:29:54;;;;;;;52.97;17.17;;;0.10;99.90;;;-1.20;100.00;100781.53;4223586;28;20027;-76
2022/12/08 06:31:55;;;;;;;48.50;14.95;;;0.10;99.90;;;-1.22;100.00;100785.09;4228745;28;20035;-76
2022/12/08 06:33:56;;;;;;;30.45;14.98;;;0.10;99.90;;;-1.20;100.00;100778.97;4218521;28;20054;-76
2022/12/08 06:35:58;;;;;;;54.60;16.58;;;0.10;99.90;;;-1.35;100.00;100779.75;4201795;28;20487;-76
2022/12/08 06:37:58;;;;;;;34.42;15.50;;;0.00;99.90;;;-1.37;100.00;100778.97;4236371;28;20035;-76
2022/12/08 06:39:59;;;;;;;50.88;16.17;;;0.00;99.90;;;-1.32;100.00;100771.00;4229653;28;20584;-76
2022/12/08 06:44:20;;;;;;;55.10;16.98;;;0.00;99.90;;;-1.24;100.00;100780.03;4233961;28;20038;-76
2022/12/08 06:46:20;;;;;;;54.92;16.65;;;0.00;99.90;;;-1.27;100.00;100774.16;4230657;28;20449;-76
2022/12/08 06:48:21;;;;;;;44.75;15.75;;;0.00;99.90;;;-1.23;100.00;100776.53;4227602;28;20039;-76
2022/12/08 06:50:23;;;;;;;65.70;16.92;;;0.00;99.90;;;-1.29;100.00;100766.50;4235091;28;20019;-76
2022/12/08 06:52:24;;;;;;;39.17;15.68;;;-0.10;99.90;;;-1.35;100.00;100759.06;4220234;28;20024;-76
2022/12/08 06:54:25;;;;;;;53.17;16.00;;;-0.10;99.90;;;-1.34;100.00;100765.03;4218476;28;20028;-76
2022/12/08 06:56:26;;;;;;;42.55;15.55;;;-0.10;99.90;;;-1.37;100.00;100755.69;4226638;28;20028;-76
2022/12/08 06:58:27;;;;;;;38.65;15.77;;;-0.10;99.90;;;-1.36;100.00;100765.13;4223412;28;20564;-76
2022/12/08 07:00:28;;;;;;;28.30;16.05;;;0.00;99.90;;;-1.30;100.00;100769.16;4201723;28;20067;-76
2022/12/08 07:02:29;;;;;;;31.13;17.10;;;-0.10;99.90;;;-1.25;100.00;100772.31;4222779;28;20020;-76
2022/12/08 07:04:30;;;;;;;42.22;17.08;;;0.00;99.90;;;-1.23;100.00;100770.50;4218232;28;20526;-76
2022/12/08 07:06:31;;;;;;;37.33;18.02;;;0.00;99.90;;;-1.21;100.00;100777.28;4229175;28;20071;-76
2022/12/08 07:08:33;;;;;;;56.83;19.00;;;0.10;99.90;;;-1.20;100.00;100776.38;4221414;28;20444;-76
2022/12/08 07:10:34;;;;;;;34.20;17.33;;;0.10;99.90;;;-1.14;100.00;100786.41;4223210;28;20020;-76
2022/12/08 07:12:35;;;;;;;36.05;17.48;;;0.10;99.90;;;-1.14;100.00;100781.22;4210206;28;20044;-76
2022/12/08 07:14:36;;;;;;;28.58;16.05;;;0.10;99.90;;;-1.16;100.00;100782.19;4217845;28;20024;-76
2022/12/08 07:16:38;;;;;;;53.05;19.23;;;0.20;99.90;;;-1.11;100.00;100778.44;4233831;28;20059;-76
2022/12/08 07:18:39;;;;;;;46.67;16.27;;;0.20;99.90;;;-1.13;100.00;100775.09;4229926;28;20024;-76
2022/12/08 07:20:39;;;;;;;56.80;15.73;;;0.20;99.90;;;-1.11;100.00;100775.84;4225253;28;20065;-76
2022/12/08 07:22:46;;;;;;;27.30;16.67;;;0.10;99.90;;;-1.16;100.00;100780.44;4223764;28;20024;-76
2022/12/08 07:24:47;;;;;;;54.55;18.70;;;0.10;99.90;;;-1.14;100.00;100776.03;4228022;28;20111;-76
2022/12/08 07:26:48;;;;;;;88.82;18.67;;;0.10;99.90;;;-1.23;100.00;100773.94;4238714;27;20028;-76
2022/12/08 07:28:49;;;;;;;55.42;18.60;;;0.10;99.90;;;-1.18;100.00;100782.28;4226470;28;20475;-76
2022/12/08 07:30:49;;;;;;;75.00;19.08;;;0.10;99.90;;;-1.16;100.00;100779.59;4247697;27;20034;-76
2022/12/08 07:32:50;;;;;;;71.38;18.25;;;0.10;99.90;;;-1.22;100.00;100769.56;4219445;28;20027;-76
2022/12/08 07:34:51;;;;;;;71.00;16.90;;;0.10;99.90;;;-1.20;100.00;100768.59;4218094;28;20123;-76
2022/12/08 07:36:52;;;;;;;77.63;20.27;;;0.10;99.90;;;-1.23;100.00;100765.34;4225731;28;20080;-76
2022/12/08 07:38:53;;;;;;;49.42;17.42;;;0.10;99.90;;;-1.22;100.00;100770.41;4252767;27;20050;-76
2022/12/08 07:40:54;;;;;;;44.13;16.58;;;0.10;99.90;;;-1.22;100.00;100767.00;4220140;28;20020;-76
2022/12/08 07:42:55;;;;;;;32.15;14.82;;;0.10;99.90;;;-1.16;100.00;100766.66;4217744;28;20118;-76
2022/12/08 07:44:56;;;;;;;48.97;14.85;;;0.10;99.90;;;-1.14;100.00;100763.09;4217743;28;20028;-76
2022/12/08 07:46:57;;;;;;;35.55;13.98;;;0.10;99.90;;;-1.11;100.00;100767.28;4228591;28;20035;-76
2022/12/08 07:48:58;;;;;;;21.88;13.30;;;0.10;99.90;;;-1.14;100.00;100763.09;4220094;28;20035;-76
2022/12/08 07:51:02;;;;;;;38.65;15.63;;;0.10;99.90;;;-1.12;100.00;100766.44;4217812;28;20028;-76
2022/12/08 07:53:03;;;;;;;34.28;14.77;;;0.10;99.90;;;-1.19;100.00;100749.56;4225295;28;20031;-76
2022/12/08 07:55:04;;;;;;;33.85;14.20;;;0.10;99.90;;;-1.07;100.00;100761.00;4234193;28;20517;-76
2022/12/08 07:57:05;;;;;;;38.00;14.25;;;0.20;99.90;;;-1.07;100.00;100761.00;4252358;27;20029;-76
2022/12/08 07:59:06;;;;;;;38.40;14.05;;;0.20;99.90;;;-1.07;100.00;100754.97;4217445;28;20024;-76
2022/12/08 08:01:31;;;;;;;35.55;15.13;;;0.20;99.90;;;-1.05;100.00;100753.16;4244836;27;20024;-76
2022/12/08 08:03:32;;;;;;;36.72;15.05;;;0.20;99.90;;;-1.04;100.00;100757.41;4231672;28;20038;-76
2022/12/08 08:05:33;;;;;;;26.60;14.60;;;0.20;99.90;;;-1.10;100.00;100737.88;4248431;27;20031;-76
2022/12/08 08:07:35;;;;;;;69.18;16.75;;;0.20;99.90;;;-1.09;100.00;100736.97;4235683;28;20110;-76
2022/12/08 08:09:36;;;;;;;29.00;14.48;;;0.20;99.90;;;-1.04;100.00;100744.47;4235522;28;20102;-76
2022/12/08 08:11:37;;;;;;;34.88;16.40;;;0.20;99.90;;;-1.08;100.00;100735.22;4231616;28;20056;-77
2022/12/08 08:13:38;;;;;;;64.78;19.48;;;0.30;99.90;;;-0.98;100.00;100741.53;4234202;28;20031;-76
2022/12/08 08:15:39;;;;;;;41.47;17.75;;;0.30;99.90;;;-0.93;100.00;100740.41;4226952;28;20032;-76
2022/12/08 08:17:40;;;;;;;38.55;17.55;;;0.30;99.90;;;-0.90;100.00;100744.56;4217103;28;20078;-77
2022/12/08 08:19:41;;;;;;;42.30;16.63;;;0.30;99.90;;;-0.87;100.00;100739.22;4248680;28;20027;-76
2022/12/08 08:21:41;;;;;;;53.55;17.13;;;0.40;99.90;;;-0.84;100.00;100739.06;4233326;28;20024;-77
2022/12/08 08:23:42;;;;;;;48.40;17.40;;;0.40;99.90;;;-0.85;100.00;100734.78;4246425;28;20019;-76
2022/12/08 08:25:43;;;;;;;29.80;15.15;;;0.40;99.90;;;-0.88;100.00;100735.81;4226619;28;20067;-77
2022/12/08 08:27:45;;;;;;;24.25;14.18;;;0.40;99.90;;;-0.82;100.00;100732.03;4250157;28;20052;-76
2022/12/08 08:29:46;;;;;;;43.70;15.10;;;0.40;99.90;;;-0.82;100.00;100729.44;4233998;28;20028;-76
2022/12/08 08:31:47;;;;;;;24.27;13.77;;;0.50;99.90;;;-0.79;100.00;100734.47;4238711;28;20505;-77